Taradale, New Zealand
Current Conditions -  °F | °C
As of 6:00 AM on Saturday 20 Dec 2014 (Local Time) from NZWN Reporting Station
Overcast Overcast  
Wind Chill: 61°   Ceiling: 1200
Heat Index: 61°   Visibility: 4mi
Dew Point: 61°   Wind: 21mph
Humidity: 100%   Direction: 360°N
Pressure: 29.97"   Gusts: NA
Location:  39.53°S, 176.85°E
Report Text: NZWN 191800Z AUTO 36018KT 6000 OVC012/// 16/16 Q1015 TEMPO 4000RADZ BKN007
Loading
Personal Weather Stations






























Interactive Weather Map New forecast layout! Learn more

10-Day Weather Forecast

Advertisements
Track Severe Weather on mobile